createdAt,value
2023-04-15T00:01:10.085Z,2.70
2023-04-15T00:03:37.038Z,2.97
2023-04-15T00:06:04.238Z,3.80
2023-04-15T00:08:32.654Z,3.60
2023-04-15T00:11:05.867Z,3.45
2023-04-15T00:13:36.017Z,3.50
2023-04-15T00:16:03.135Z,3.17
2023-04-15T00:18:45.863Z,2.97
2023-04-15T00:21:26.498Z,2.63
2023-04-15T00:23:53.937Z,2.97
2023-04-15T00:26:23.532Z,2.90
2023-04-15T00:28:53.133Z,2.20
2023-04-15T00:31:24.986Z,2.92
2023-04-15T00:34:17.339Z,2.78
2023-04-15T00:37:13.627Z,2.95
2023-04-15T00:39:40.936Z,2.53
2023-04-15T00:42:13.414Z,2.90
2023-04-15T00:44:43.304Z,3.40
2023-04-15T00:47:12.414Z,2.53
2023-04-15T00:49:39.104Z,2.72
2023-04-15T00:52:06.242Z,1.75
2023-04-15T00:54:33.047Z,1.30
2023-04-15T00:57:07.285Z,1.83
2023-04-15T00:59:59.774Z,2.05
2023-04-15T01:02:27.606Z,2.20
2023-04-15T01:04:58.925Z,2.35
2023-04-15T01:07:29.018Z,2.70
2023-04-15T01:10:03.982Z,2.20
2023-04-15T01:12:41.014Z,2.45
2023-04-15T01:15:22.181Z,2.13
2023-04-15T01:17:49.240Z,1.55
2023-04-15T01:20:25.337Z,2.43
2023-04-15T01:22:52.995Z,2.50
2023-04-15T01:25:35.166Z,2.45
2023-04-15T01:28:22.330Z,2.70
2023-04-15T01:30:51.362Z,1.98
2023-04-15T01:33:18.149Z,2.70
2023-04-15T01:35:45.220Z,2.60
2023-04-15T01:38:14.455Z,2.65
2023-04-15T01:40:41.049Z,2.40
2023-04-15T01:43:07.776Z,2.42
2023-04-15T01:45:34.524Z,2.30
2023-04-15T01:48:01.728Z,2.30
2023-04-15T01:50:37.071Z,2.30
2023-04-15T01:53:06.201Z,2.38
2023-04-15T01:55:35.823Z,2.22
2023-04-15T01:58:02.758Z,2.20
2023-04-15T02:00:30.169Z,2.28
2023-04-15T02:02:57.145Z,1.92
2023-04-15T02:05:25.697Z,2.25
2023-04-15T02:07:52.721Z,2.60
2023-04-15T02:10:27.392Z,2.33
2023-04-15T02:12:56.791Z,2.47
2023-04-15T02:15:23.440Z,2.10
2023-04-15T02:17:52.900Z,2.33
2023-04-15T02:20:21.535Z,1.17
2023-04-15T02:22:48.640Z,2.30
2023-04-15T02:25:17.084Z,2.00
2023-04-15T02:27:46.486Z,2.30
2023-04-15T02:30:13.627Z,3.00
2023-04-15T02:32:41.069Z,1.45
2023-04-15T02:35:09.052Z,2.20
2023-04-15T02:37:40.811Z,2.40
2023-04-15T02:40:11.978Z,2.03
2023-04-15T02:42:44.128Z,1.88
2023-04-15T02:45:12.930Z,2.00
2023-04-15T02:47:43.335Z,1.87
2023-04-15T02:50:13.488Z,1.90
2023-04-15T02:52:42.094Z,1.73
2023-04-15T02:55:09.718Z,1.55
2023-04-15T02:57:40.844Z,1.60
2023-04-15T03:00:10.213Z,1.27
2023-04-15T03:02:40.202Z,1.63
2023-04-15T03:05:07.818Z,1.10
2023-04-15T03:07:35.702Z,1.05
2023-04-15T03:10:02.705Z,0.80
2023-04-15T03:12:30.502Z,1.10
2023-04-15T03:14:57.205Z,1.20
2023-04-15T03:17:23.944Z,1.27
2023-04-15T03:19:53.635Z,1.50
2023-04-15T03:22:20.581Z,1.58
2023-04-15T03:24:55.053Z,1.80
2023-04-15T03:27:21.697Z,1.80
2023-04-15T03:29:51.747Z,1.98
2023-04-15T03:32:22.859Z,1.60
2023-04-15T03:34:55.396Z,2.38
2023-04-15T03:37:22.424Z,2.57
2023-04-15T03:39:53.309Z,2.97
2023-04-15T03:42:20.456Z,2.58
2023-04-15T03:44:51.304Z,2.83
2023-04-15T03:47:18.242Z,3.10
2023-04-15T03:49:47.836Z,3.53
2023-04-15T03:52:17.030Z,3.58
2023-04-15T03:54:56.233Z,3.83
2023-04-15T03:57:24.367Z,3.90
2023-04-15T04:00:02.569Z,4.15
2023-04-15T04:02:36.936Z,3.83
2023-04-15T04:05:12.695Z,4.20
2023-04-15T04:07:57.251Z,4.35
2023-04-15T04:10:27.164Z,3.78
2023-04-15T04:12:59.876Z,4.20
2023-04-15T04:15:28.999Z,3.73
2023-04-15T04:17:58.331Z,3.55
2023-04-15T04:20:26.158Z,4.20
2023-04-15T04:23:02.861Z,4.78
2023-04-15T04:25:29.817Z,5.07
2023-04-15T04:28:02.308Z,5.00
2023-04-15T04:30:31.805Z,5.53
2023-04-15T04:33:02.573Z,5.40
2023-04-15T04:35:30.716Z,5.45
2023-04-15T04:38:01.103Z,5.38
2023-04-15T04:40:33.863Z,5.37
2023-04-15T04:43:01.222Z,3.95
2023-04-15T04:45:30.603Z,4.43
2023-04-15T04:47:57.745Z,4.78
2023-04-15T04:50:24.471Z,4.05
2023-04-15T04:55:56.753Z,3.85
2023-04-15T04:58:37.707Z,4.05
2023-04-15T05:01:04.727Z,3.83
2023-04-15T05:03:33.952Z,4.07
2023-04-15T05:06:06.174Z,3.40
2023-04-15T05:08:35.041Z,3.40
2023-04-15T05:11:08.267Z,3.42
2023-04-15T05:13:43.557Z,3.75
2023-04-15T05:16:10.378Z,4.07
2023-04-15T05:18:42.263Z,3.77
2023-04-15T05:21:09.099Z,3.72
2023-04-15T05:23:38.038Z,3.53
2023-04-15T05:26:04.888Z,3.40
2023-04-15T05:28:31.512Z,3.67
2023-04-15T05:30:58.381Z,3.67
2023-04-15T05:33:27.692Z,3.60
2023-04-15T05:35:54.242Z,3.15
2023-04-15T05:41:09.681Z,3.58
2023-04-15T05:43:40.441Z,3.33
2023-04-15T05:46:18.141Z,3.90
2023-04-15T05:48:46.118Z,3.70
2023-04-15T05:51:27.102Z,3.95
2023-04-15T05:53:53.784Z,4.55
2023-04-15T05:56:23.135Z,2.77
2023-04-15T05:59:07.515Z,4.40
2023-04-15T06:01:34.465Z,4.35
2023-04-15T06:04:09.862Z,4.50
2023-04-15T06:06:41.332Z,4.50
2023-04-15T06:09:08.006Z,4.53
2023-04-15T06:11:37.318Z,4.68
2023-04-15T06:14:11.511Z,5.30
2023-04-15T06:16:51.938Z,4.70
2023-04-15T06:19:26.303Z,5.18
2023-04-15T06:22:30.817Z,4.80
2023-04-15T06:27:47.406Z,4.90
2023-04-15T06:30:25.360Z,5.60
2023-04-15T06:32:52.907Z,5.22
2023-04-15T06:35:20.044Z,5.60
2023-04-15T06:37:52.019Z,5.63
2023-04-15T06:40:18.688Z,5.13
2023-04-15T06:42:45.777Z,4.90
2023-04-15T06:45:15.317Z,5.43
2023-04-15T06:47:44.415Z,3.53
2023-04-15T06:50:13.545Z,3.97
2023-04-15T06:52:50.847Z,4.05
2023-04-15T06:55:32.183Z,4.07
2023-04-15T06:58:25.491Z,4.07
2023-04-15T07:00:55.849Z,3.23
2023-04-15T07:03:22.617Z,3.53
2023-04-15T07:05:53.466Z,2.95
2023-04-15T07:08:50.381Z,2.78
2023-04-15T07:11:52.512Z,2.83
2023-04-15T07:14:26.629Z,2.80
2023-04-15T07:17:12.689Z,2.40
2023-04-15T07:19:50.430Z,2.28
2023-04-15T07:22:20.393Z,2.33
2023-04-15T07:24:58.181Z,2.17
2023-04-15T07:27:25.154Z,2.30
2023-04-15T07:29:52.834Z,2.50
2023-04-15T07:32:21.461Z,2.80
2023-04-15T07:35:42.421Z,2.60
2023-04-15T07:38:07.247Z,2.70
2023-04-15T07:40:34.373Z,1.90
2023-04-15T07:43:42.045Z,2.53
2023-04-15T07:46:24.819Z,2.30
2023-04-15T07:48:52.635Z,2.45
2023-04-15T07:51:25.695Z,2.90
2023-04-15T07:53:53.013Z,2.47
2023-04-15T07:56:22.373Z,2.40
2023-04-15T07:59:19.010Z,2.70
2023-04-15T08:02:07.210Z,2.92
2023-04-15T08:04:35.882Z,2.72
2023-04-15T08:07:29.178Z,2.70
2023-04-15T08:09:58.762Z,2.67
2023-04-15T08:12:38.700Z,3.08
2023-04-15T08:15:21.091Z,2.50
2023-04-15T08:18:05.263Z,2.92
2023-04-15T08:20:36.443Z,2.80
2023-04-15T08:23:04.693Z,2.20
2023-04-15T08:25:45.463Z,2.50
2023-04-15T08:28:12.236Z,2.70
2023-04-15T08:30:41.156Z,2.08
2023-04-15T08:33:12.633Z,2.90
2023-04-15T08:35:44.802Z,2.72
2023-04-15T08:38:38.635Z,2.20
2023-04-15T08:42:10.392Z,2.50
2023-04-15T08:44:48.888Z,2.80
2023-04-15T08:50:53.576Z,2.00
2023-04-15T09:04:23.975Z,2.60
2023-04-15T10:32:18.628Z,1.80
2023-04-15T11:06:47.741Z,2.33
2023-04-15T11:26:49.644Z,2.60
2023-04-15T11:30:39.444Z,2.80
2023-04-15T11:33:56.617Z,2.45
2023-04-15T11:37:30.675Z,2.80
2023-04-15T11:44:22.028Z,2.45
2023-04-15T11:47:02.702Z,3.22
2023-04-15T11:53:23.136Z,2.75
2023-04-15T12:00:05.699Z,2.88
2023-04-15T12:50:16.706Z,3.58
2023-04-15T14:34:56.076Z,2.67
2023-04-15T14:43:04.274Z,2.40
2023-04-15T15:03:23.634Z,2.55
2023-04-15T15:23:37.490Z,2.30
2023-04-15T15:26:42.335Z,2.63
2023-04-15T15:29:27.942Z,1.90
2023-04-15T15:32:08.194Z,2.45
2023-04-15T15:35:03.975Z,2.35
2023-04-15T15:38:12.018Z,2.33
2023-04-15T15:44:44.550Z,2.55
2023-04-15T15:47:57.780Z,2.75
2023-04-15T15:50:43.855Z,2.63
2023-04-15T15:53:28.225Z,3.00
2023-04-15T15:56:21.217Z,2.70
2023-04-15T15:58:59.680Z,2.97
2023-04-15T16:05:27.299Z,2.80
2023-04-15T16:08:05.558Z,2.73
2023-04-15T16:36:41.839Z,2.78
2023-04-15T16:39:12.247Z,3.40
2023-04-15T16:41:41.701Z,2.78
2023-04-15T16:44:13.550Z,2.65
2023-04-15T16:46:57.302Z,3.45
2023-04-15T16:49:50.590Z,2.80
2023-04-15T16:52:39.269Z,2.90
2023-04-15T16:58:18.602Z,2.67
2023-04-15T17:00:50.310Z,2.50
2023-04-15T17:03:20.169Z,3.00
2023-04-15T17:05:51.925Z,2.40
2023-04-15T17:08:40.469Z,2.53
2023-04-15T17:11:07.396Z,2.47
2023-04-15T17:13:58.584Z,2.50
2023-04-15T17:16:28.124Z,2.72
2023-04-15T17:18:57.679Z,2.47
2023-04-15T17:21:25.988Z,2.65
2023-04-15T17:23:58.896Z,2.47
2023-04-15T17:26:25.603Z,3.10
2023-04-15T17:28:54.862Z,2.60
2023-04-15T17:31:32.884Z,2.47
2023-04-15T17:34:13.956Z,2.40
2023-04-15T17:36:51.606Z,3.17
2023-04-15T17:39:41.603Z,2.30
2023-04-15T17:42:15.878Z,2.47
2023-04-15T17:44:45.595Z,2.50
2023-04-15T17:47:14.867Z,2.63
2023-04-15T17:49:41.639Z,2.78
2023-04-15T17:55:23.057Z,2.33
2023-04-15T17:57:56.953Z,2.23
2023-04-15T18:00:26.735Z,2.35
2023-04-15T18:02:57.610Z,2.65
2023-04-15T18:05:24.590Z,3.10
2023-04-15T18:07:53.106Z,3.33
2023-04-15T18:10:20.850Z,2.60
2023-04-15T18:12:50.528Z,2.50
2023-04-15T18:15:23.298Z,2.40
2023-04-15T18:17:50.086Z,2.63
2023-04-15T18:20:16.948Z,2.22
2023-04-15T18:22:44.461Z,2.40
2023-04-15T18:25:11.372Z,2.00
2023-04-15T18:27:41.272Z,2.40
2023-04-15T18:30:14.278Z,2.10
2023-04-15T18:32:55.404Z,2.47
2023-04-15T18:35:22.791Z,2.53
2023-04-15T18:37:49.577Z,2.72
2023-04-15T18:40:19.220Z,2.72
2023-04-15T18:46:12.433Z,2.83
2023-04-15T18:48:39.594Z,3.50
2023-04-15T18:51:06.202Z,2.50
2023-04-15T18:53:38.133Z,3.10
2023-04-15T18:56:05.251Z,3.50
2023-04-15T18:59:18.254Z,2.80
2023-04-15T19:01:27.080Z,2.33
2023-04-15T19:04:09.300Z,2.70
2023-04-15T19:06:50.863Z,2.42
2023-04-15T19:09:17.985Z,2.75
2023-04-15T19:11:44.756Z,2.70
2023-04-15T19:14:11.788Z,2.70
2023-04-15T19:16:48.613Z,3.15
2023-04-15T19:19:16.976Z,3.05
2023-04-15T19:21:49.921Z,3.67
2023-04-15T19:24:21.843Z,4.65
2023-04-15T19:27:06.535Z,4.03
2023-04-15T19:30:19.799Z,3.47
2023-04-15T19:33:11.148Z,4.15
2023-04-15T19:36:01.817Z,4.20
2023-04-15T19:39:21.215Z,4.40
2023-04-15T19:42:21.463Z,4.07
2023-04-15T19:45:06.513Z,4.55
2023-04-15T19:47:45.728Z,4.07
2023-04-15T19:50:17.046Z,4.10
2023-04-15T19:52:43.908Z,4.38
2023-04-15T19:55:13.271Z,4.17
2023-04-15T19:57:39.920Z,4.55
2023-04-15T20:00:08.595Z,4.30
2023-04-15T20:02:38.492Z,4.32
2023-04-15T20:05:09.821Z,4.40
2023-04-15T20:07:36.792Z,4.50
2023-04-15T20:10:09.641Z,3.97
2023-04-15T20:12:51.164Z,3.67
2023-04-15T20:15:23.871Z,4.28
2023-04-15T20:17:50.985Z,4.10
2023-04-15T20:20:24.228Z,3.97
2023-04-15T20:22:53.203Z,4.28
2023-04-15T20:25:20.191Z,3.85
2023-04-15T20:27:47.372Z,3.80
2023-04-15T20:30:15.625Z,3.42
2023-04-15T20:32:55.371Z,3.83
2023-04-15T20:35:22.424Z,3.38
2023-04-15T20:37:49.515Z,3.55
2023-04-15T20:40:16.644Z,3.55
2023-04-15T20:42:58.151Z,5.22
2023-04-15T20:45:54.007Z,4.47
2023-04-15T20:48:24.102Z,4.25
2023-04-15T20:50:59.526Z,3.92
2023-04-15T20:53:27.684Z,3.75
2023-04-15T20:55:59.689Z,4.20
2023-04-15T20:58:27.603Z,4.23
2023-04-15T21:00:58.844Z,4.10
2023-04-15T21:06:08.279Z,3.55
2023-04-15T21:08:37.153Z,3.67
2023-04-15T21:11:03.855Z,3.63
2023-04-15T21:13:30.513Z,4.03
2023-04-15T21:18:40.310Z,5.13
2023-04-15T21:21:10.101Z,4.75
2023-04-15T21:23:48.899Z,4.90
2023-04-15T21:26:18.724Z,4.50
2023-04-15T21:28:55.764Z,4.35
2023-04-15T21:31:25.134Z,4.28
2023-04-15T21:34:02.562Z,4.35
2023-04-15T21:36:51.455Z,4.07
2023-04-15T21:39:21.132Z,3.90
2023-04-15T21:41:50.017Z,4.82
2023-04-15T21:44:19.733Z,4.88
2023-04-15T21:47:09.997Z,4.85
2023-04-15T21:49:49.362Z,5.63
2023-04-15T21:52:28.604Z,6.00
2023-04-15T21:54:56.255Z,6.38
2023-04-15T21:57:54.987Z,5.47
2023-04-15T22:00:34.945Z,5.80
2023-04-15T22:04:32.710Z,4.90
2023-04-15T22:07:20.432Z,5.45
2023-04-15T22:10:10.897Z,5.30
2023-04-15T22:12:37.955Z,5.18
2023-04-15T22:15:07.806Z,5.20
2023-04-15T22:17:34.390Z,5.23
2023-04-15T22:20:04.006Z,5.55
2023-04-15T22:22:43.538Z,6.07
2023-04-15T22:25:11.231Z,5.78
2023-04-15T22:27:40.350Z,5.40
2023-04-15T22:30:07.629Z,5.53
2023-04-15T22:32:34.788Z,5.97
2023-04-15T22:35:02.012Z,5.68
2023-04-15T22:37:31.675Z,5.80
2023-04-15T22:39:58.787Z,5.70
2023-04-15T22:42:25.705Z,6.07
2023-04-15T22:44:52.293Z,5.35
2023-04-15T22:47:19.709Z,5.40
2023-04-15T22:49:46.513Z,5.28
2023-04-15T22:52:27.492Z,5.72
2023-04-15T22:55:00.438Z,5.80
2023-04-15T22:57:28.327Z,6.10
2023-04-15T22:59:55.364Z,5.43
2023-04-15T23:02:22.170Z,6.25
2023-04-15T23:04:49.314Z,5.97
2023-04-15T23:07:16.325Z,6.10
2023-04-15T23:09:43.454Z,6.13
2023-04-15T23:12:10.514Z,6.43
2023-04-15T23:14:37.200Z,7.10
2023-04-15T23:17:04.273Z,6.47
2023-04-15T23:19:31.233Z,6.30
2023-04-15T23:21:58.033Z,6.45
2023-04-15T23:24:24.636Z,6.50
2023-04-15T23:26:53.321Z,7.07
2023-04-15T23:29:20.223Z,6.38
2023-04-15T23:31:48.836Z,6.53
2023-04-15T23:34:15.676Z,5.97
2023-04-15T23:36:42.275Z,6.43
2023-04-15T23:39:09.156Z,6.93
2023-04-15T23:41:36.752Z,6.63
2023-04-15T23:44:03.703Z,7.43
2023-04-15T23:46:30.543Z,6.72
2023-04-15T23:48:57.361Z,7.50
2023-04-15T23:51:29.503Z,7.35
2023-04-15T23:53:56.171Z,7.53
2023-04-15T23:56:22.755Z,7.13
2023-04-15T23:58:49.370Z,7.75
